Time;durP1;ratioP1;P1;durP2;ratioP2;P2;SDS_P1;SDS_P2;PMS_P1;PMS_P2;Temp;Humidity;BMP_temperature;BMP_pressure;BME280_temperature;BME280_humidity;BME280_pressure;Samples;Min_cycle;Max_cycle;Signal;HPM_P1;HPM_P2
2022/01/22 00:00:35;;;;;;;3.33;1.02;;;;;;;18.14;34.34;103304.03;4240184;28;20032;-45
2022/01/22 00:02:37;;;;;;;4.30;1.02;;;;;;;18.15;34.59;103294.69;4229253;28;20104;-49
2022/01/22 00:04:38;;;;;;;4.00;1.60;;;;;;;18.18;34.90;103293.41;4229426;28;20044;-45
2022/01/22 00:06:39;;;;;;;3.83;1.20;;;;;;;18.22;34.88;103289.19;4228252;28;20048;-46
2022/01/22 00:08:41;;;;;;;3.17;1.33;;;;;;;18.23;34.64;103280.66;4228414;28;20039;-44
2022/01/22 00:10:45;;;;;;;3.95;2.03;;;;;;;18.17;34.46;103286.16;4230511;28;20024;-46
2022/01/22 00:14:51;;;;;;;4.93;1.33;;;;;;;18.23;34.73;103313.91;4231659;28;20031;-45
2022/01/22 00:16:56;;;;;;;3.05;1.20;;;;;;;18.24;34.51;103314.78;4209076;28;20040;-43
2022/01/22 00:18:57;;;;;;;3.58;1.00;;;;;;;18.24;34.60;103306.47;4216377;28;20032;-46
2022/01/22 00:20:59;;;;;;;4.30;1.30;;;;;;;18.24;34.64;103306.47;4215311;28;20097;-46
2022/01/22 00:23:00;;;;;;;5.22;1.38;;;;;;;18.24;34.58;103315.63;4216415;28;20024;-46
2022/01/22 00:25:07;;;;;;;6.72;1.02;;;;;;;18.22;34.60;103301.13;4215796;28;20040;-51
2022/01/22 00:27:08;;;;;;;3.58;1.23;;;;;;;18.23;34.76;103307.50;4215283;28;20164;-49
2022/01/22 00:29:13;;;;;;;2.25;1.20;;;;;;;18.23;34.51;103302.81;4215060;28;20668;-45
2022/01/22 00:31:14;;;;;;;2.60;1.00;;;;;;;18.22;34.89;103290.03;4215423;28;20048;-45
2022/01/22 00:33:16;;;;;;;3.30;1.60;;;;;;;18.24;34.47;103295.38;4222242;27;20039;-45
2022/01/22 00:35:19;;;;;;;4.28;1.10;;;;;;;18.21;34.92;103298.56;4232509;28;20097;-47
2022/01/22 00:37:20;;;;;;;3.38;1.30;;;;;;;18.21;34.78;103293.88;4231926;28;20096;-44
2022/01/22 00:39:25;;;;;;;2.13;1.02;;;;;;;18.19;34.38;103295.13;4231558;28;20544;-46
2022/01/22 00:41:26;;;;;;;2.58;1.48;;;;;;;18.17;34.56;103289.78;4215445;28;20484;-49
2022/01/22 00:43:28;;;;;;;4.95;1.00;;;;;;;18.20;34.73;103286.63;4215422;28;20044;-49
2022/01/22 00:45:29;;;;;;;2.47;1.30;;;;;;;18.18;34.44;103293.41;4215174;28;20036;-46
2022/01/22 00:47:31;;;;;;;2.65;1.23;;;;;;;18.15;34.45;103293.84;4213854;28;20082;-45
2022/01/22 00:49:33;;;;;;;4.13;1.20;;;;;;;18.18;34.62;103297.03;4215010;28;20475;-47
2022/01/22 00:51:34;;;;;;;5.75;1.33;;;;;;;18.17;34.43;103291.72;4215892;28;20040;-44
2022/01/22 00:53:36;;;;;;;2.22;0.95;;;;;;;18.16;34.49;103285.31;4215403;28;20051;-47
2022/01/22 00:55:37;;;;;;;4.07;1.25;;;;;;;18.15;34.06;103286.38;4215904;28;20074;-48
2022/01/22 00:57:39;;;;;;;4.28;1.25;;;;;;;18.14;34.12;103281.88;4215016;28;20109;-45
2022/01/22 00:59:41;;;;;;;2.17;1.00;;;;;;;18.10;34.30;103275.06;4214109;28;20040;-48
2022/01/22 01:01:42;;;;;;;4.20;1.20;;;;;;;18.11;34.15;103285.09;4214817;28;20101;-47
2022/01/22 01:03:44;;;;;;;4.15;1.27;;;;;;;18.08;34.13;103279.94;4215296;28;20036;-47
2022/01/22 01:05:46;;;;;;;3.05;1.00;;;;;;;18.09;34.30;103281.66;4214920;28;20036;-45
2022/01/22 01:07:50;;;;;;;3.78;1.20;;;;;;;18.07;34.55;103286.56;4215010;28;20052;-44
2022/01/22 01:09:51;;;;;;;1.25;0.95;;;;;;;18.09;34.45;103278.88;4215465;28;20023;-48
2022/01/22 01:11:57;;;;;;;2.47;0.95;;;;;;;18.08;34.41;103279.09;4214872;28;20036;-45
2022/01/22 01:14:02;;;;;;;3.20;1.20;;;;;;;18.04;34.51;103275.88;4214701;28;20116;-48
2022/01/22 01:32:11;;;;;;;3.67;1.10;;;;;;;18.20;34.10;103280.22;4216446;28;20508;-50
2022/01/22 01:32:49;;;;;;;2.30;0.95;;;;;;;18.29;34.25;103265.13;4216267;28;20097;-48
2022/01/22 01:34:51;;;;;;;1.60;1.00;;;;;;;18.36;33.89;103276.22;4215104;28;20040;-46
2022/01/22 01:36:53;;;;;;;1.88;1.10;;;;;;;18.18;33.76;103255.47;4214393;28;20097;-45
2022/01/22 01:38:59;;;;;;;1.65;1.10;;;;;;;18.41;33.50;103282.00;4212596;28;20097;-50
2022/01/22 01:41:08;;;;;;;3.13;1.05;;;;;;;18.45;33.73;103280.53;4227512;28;20474;-46
2022/01/22 01:43:28;;;;;;;1.77;1.10;;;;;;;18.47;33.55;103278.41;4230902;28;20088;-44
2022/01/22 01:45:31;;;;;;;3.47;1.13;;;;;;;18.51;33.44;103293.59;4229736;28;20395;-47
2022/01/22 01:47:34;;;;;;;1.33;0.85;;;;;;;18.52;33.18;103295.28;4230669;28;20093;-47
2022/01/22 01:49:36;;;;;;;2.83;0.90;;;;;;;18.53;32.94;103297.84;4222529;28;20043;-47
2022/01/22 01:51:38;;;;;;;2.15;1.08;;;;;;;18.52;32.82;103298.06;4214102;28;20040;-47
2022/01/22 01:53:57;;;;;;;2.50;1.10;;;;;;;18.54;32.98;103296.75;4220184;28;20101;-45
2022/01/22 01:58:00;;;;;;;2.05;1.13;;;;;;;18.58;32.62;103288.03;4231548;28;20510;-45
2022/01/22 02:00:01;;;;;;;1.75;1.17;;;;;;;18.59;32.98;103285.06;4228960;27;20076;-48
2022/01/22 02:02:04;;;;;;;2.05;1.15;;;;;;;18.58;32.60;103286.13;4229983;28;20100;-43
2022/01/22 02:04:08;;;;;;;1.08;0.88;;;;;;;18.58;32.96;103288.91;4224850;28;20085;-45
2022/01/22 02:06:09;;;;;;;3.65;1.17;;;;;;;18.59;32.96;103279.50;4220074;27;20490;-48
2022/01/22 02:08:15;;;;;;;2.35;0.90;;;;;;;18.59;32.45;103276.72;4236900;27;20081;-45
2022/01/22 02:10:21;;;;;;;6.55;1.35;;;;;;;18.62;32.63;103281.03;4239040;27;20053;-45
2022/01/22 02:24:02;;;;;;;1.92;0.95;;;;;;;18.64;32.52;103249.22;4236379;27;20081;-49
2022/01/22 02:26:05;;;;;;;1.98;1.13;;;;;;;18.64;32.50;103254.78;4244277;27;20080;-48
2022/01/22 02:28:06;;;;;;;3.78;1.23;;;;;;;18.65;32.61;103264.81;4244854;27;20039;-46
2022/01/22 02:30:18;;;;;;;2.17;1.02;;;;;;;18.60;32.51;103247.97;4247110;27;20092;-46
2022/01/22 02:33:00;;;;;;;3.00;1.10;;;;;;;18.62;32.57;103265.22;4241820;27;20095;-51
2022/01/22 02:35:11;;;;;;;13.60;1.02;;;;;;;18.64;32.65;103253.91;4242741;27;20043;-46
2022/01/22 02:37:16;;;;;;;3.42;0.80;;;;;;;18.62;32.86;103262.47;4247306;27;20039;-47
2022/01/22 02:39:22;;;;;;;;;;;;;;;18.61;32.51;103271.00;4247442;27;20104;-45
2022/01/22 02:41:25;;;;;;;2.28;1.20;;;;;;;18.65;32.77;103264.81;4235338;28;19915;-46
2022/01/22 02:43:29;;;;;;;2.85;1.08;;;;;;;18.64;32.36;103254.78;4234612;27;20031;-45
2022/01/22 02:45:31;;;;;;;1.73;0.90;;;;;;;18.63;32.81;103253.06;4240926;27;20039;-48
2022/01/22 02:47:33;;;;;;;3.08;0.90;;;;;;;18.61;32.83;103257.97;4241399;27;20104;-47
2022/01/22 02:49:35;;;;;;;3.40;1.15;;;;;;;18.61;32.93;103266.31;4247608;27;20478;-47
2022/01/22 02:51:36;;;;;;;3.03;1.00;;;;;;;18.59;32.54;103262.88;4238882;27;20035;-46
2022/01/22 02:53:38;;;;;;;3.05;1.00;;;;;;;18.58;32.58;103265.88;4246934;27;20035;-52
2022/01/22 02:55:40;;;;;;;1.48;1.13;;;;;;;18.58;32.72;103266.72;4247015;27;20043;-45
2022/01/22 02:57:44;;;;;;;1.77;0.98;;;;;;;18.52;32.72;103267.56;4245864;27;20043;-47
2022/01/22 02:59:45;;;;;;;6.50;1.13;;;;;;;18.56;32.71;103257.75;4237486;28;20047;-47
2022/01/22 03:01:49;;;;;;;2.47;0.95;;;;;;;18.53;32.60;103245.16;4237534;27;20080;-46
2022/01/22 03:03:51;;;;;;;2.35;0.80;;;;;;;18.54;32.73;103255.19;4246527;28;20526;-47
2022/01/22 03:05:52;;;;;;;1.58;1.00;;;;;;;18.53;32.96;103252.63;4245469;28;20091;-45
2022/01/22 03:07:56;;;;;;;2.80;1.00;;;;;;;18.52;32.66;103245.38;4247639;28;20375;-50
2022/01/22 03:10:01;;;;;;;3.70;0.90;;;;;;;18.52;32.53;103250.91;4214820;28;20024;-47
2022/01/22 03:16:46;;;;;;;3.03;1.00;;;;;;;18.47;32.76;103234.06;4247657;28;20115;-45
2022/01/22 03:18:59;;;;;;;3.83;1.17;;;;;;;18.50;32.79;103250.25;4238096;28;20543;-44
2022/01/22 03:21:28;;;;;;;2.25;1.00;;;;;;;18.49;32.91;103240.25;4237023;28;20052;-47
2022/01/22 03:28:09;;;;;;;1.13;0.90;;;;;;;18.42;32.64;103256.88;4246661;27;20076;-46
2022/01/22 03:30:13;;;;;;;1.40;1.00;;;;;;;18.42;32.76;103244.94;4239390;28;20473;-49
2022/01/22 03:32:14;;;;;;;1.70;1.02;;;;;;;18.43;32.71;103241.94;4246393;28;20031;-45
2022/01/22 03:34:16;;;;;;;3.58;1.17;;;;;;;18.41;33.10;103241.28;4245436;28;20077;-44
2022/01/22 03:36:19;;;;;;;2.55;1.23;;;;;;;18.39;32.82;103228.69;4247473;28;20088;-44
2022/01/22 03:38:21;;;;;;;3.20;1.10;;;;;;;18.40;32.69;103241.50;4239259;28;20077;-47
2022/01/22 03:40:29;;;;;;;2.80;0.95;;;;;;;18.39;32.79;103240.63;4235742;28;20080;-45
2022/01/22 03:42:30;;;;;;;2.20;1.00;;;;;;;18.40;32.72;103241.50;4236771;28;20039;-48
2022/01/22 03:44:34;;;;;;;2.20;0.88;;;;;;;18.33;33.01;103241.47;4232348;28;20097;-48
2022/01/22 03:46:37;;;;;;;2.03;1.10;;;;;;;18.38;33.21;103243.63;4239712;28;20440;-46
2022/01/22 03:48:40;;;;;;;1.23;0.80;;;;;;;18.38;33.02;103235.31;4237582;28;20048;-45
2022/01/22 03:50:41;;;;;;;1.33;0.88;;;;;;;18.36;32.93;103240.19;4239856;28;20170;-45
2022/01/22 03:52:43;;;;;;;1.05;0.80;;;;;;;18.37;32.91;103248.31;4237864;27;20072;-44
2022/01/22 03:54:44;;;;;;;2.17;1.10;;;;;;;18.33;33.30;103240.63;4246644;27;20096;-46
2022/01/22 03:56:47;;;;;;;2.75;0.98;;;;;;;18.33;33.33;103246.19;4246723;27;20072;-47
2022/01/22 03:58:48;;;;;;;1.17;0.82;;;;;;;18.32;32.94;103242.53;4241489;27;20431;-44
2022/01/22 04:00:57;;;;;;;1.88;0.80;;;;;;;18.30;33.08;103241.88;4239071;27;20097;-46
2022/01/22 04:05:15;;;;;;;1.90;0.80;;;;;;;18.29;32.99;103241.03;4247374;27;20035;-46
2022/01/22 04:09:43;;;;;;;2.53;1.00;;;;;;;18.28;33.30;103217.16;4241744;27;20083;-45
2022/01/22 04:11:46;;;;;;;2.00;1.42;;;;;;;18.25;32.87;103206.47;4235529;27;20052;-46
2022/01/22 04:13:51;;;;;;;2.03;0.93;;;;;;;18.25;32.90;103212.03;4241688;27;20040;-45
2022/01/22 04:15:53;;;;;;;2.63;0.90;;;;;;;18.24;33.29;103204.78;4247151;27;20478;-45
2022/01/22 04:24:57;;;;;;;1.30;1.13;;;;;;;18.21;33.30;103205.19;4228405;27;20108;-47
2022/01/22 04:27:08;;;;;;;2.00;1.00;;;;;;;18.20;33.12;103203.47;4229411;27;20047;-46
2022/01/22 04:29:09;;;;;;;2.30;1.00;;;;;;;18.19;32.88;103196.25;4232895;27;20108;-47
2022/01/22 04:31:11;;;;;;;1.95;1.00;;;;;;;18.19;33.15;103196.25;4234917;27;20368;-48
2022/01/22 04:33:12;;;;;;;1.45;1.00;;;;;;;18.21;33.05;103196.00;4248873;27;20100;-47
2022/01/22 04:35:14;;;;;;;2.58;0.85;;;;;;;18.19;33.14;103189.81;4234784;27;20138;-48
2022/01/22 04:37:18;;;;;;;1.60;0.80;;;;;;;18.20;33.04;103192.41;4221373;28;20453;-49
2022/01/22 04:39:21;;;;;;;3.22;1.00;;;;;;;18.18;33.22;103193.66;4215396;28;20093;-49
2022/01/22 04:41:23;;;;;;;1.88;0.90;;;;;;;18.14;33.04;103187.66;4227020;28;20082;-47
2022/01/22 04:43:24;;;;;;;1.17;0.90;;;;;;;18.15;33.11;103200.47;4232899;28;20023;-46
2022/01/22 04:52:42;;;;;;;4.82;0.80;;;;;;;18.10;33.19;103180.84;4231583;28;20100;-48
2022/01/22 04:55:00;;;;;;;2.05;1.30;;;;;;;18.11;33.26;103165.09;4215288;28;20044;-48
2022/01/22 04:57:02;;;;;;;1.13;0.80;;;;;;;18.10;33.63;103158.69;4215399;28;20044;-44
2022/01/22 04:59:04;;;;;;;2.47;0.93;;;;;;;18.13;33.14;103161.03;4215046;28;20093;-45
2022/01/22 05:01:05;;;;;;;2.65;1.02;;;;;;;18.16;33.30;103157.84;4218549;28;20074;-47
2022/01/22 05:03:10;;;;;;;3.38;0.90;;;;;;;18.18;33.27;103146.53;4213985;28;20097;-49
2022/01/22 05:05:11;;;;;;;2.47;0.90;;;;;;;18.20;33.02;103148.06;4218419;28;20070;-49
2022/01/22 05:07:13;;;;;;;0.77;0.70;;;;;;;18.21;32.99;103138.66;4232148;28;20368;-45
2022/01/22 05:09:14;;;;;;;2.05;1.00;;;;;;;18.22;32.98;103140.38;4230634;28;20036;-49
2022/01/22 05:11:16;;;;;;;1.02;0.70;;;;;;;18.26;33.26;103135.28;4232277;28;20031;-50
2022/01/22 05:13:18;;;;;;;1.85;0.80;;;;;;;18.28;33.20;103133.16;4232108;28;20047;-47
2022/01/22 05:15:23;;;;;;;2.20;0.90;;;;;;;18.25;33.09;103128.03;4231742;28;20085;-46
2022/01/22 05:17:25;;;;;;;1.50;1.10;;;;;;;18.34;33.30;103137.00;4231574;28;20436;-47
2022/01/22 05:21:38;;;;;;;1.63;1.00;;;;;;;18.40;32.85;103125.06;4232357;28;20122;-50
2022/01/22 05:23:41;;;;;;;0.85;0.60;;;;;;;18.40;32.69;103125.06;4231522;28;20454;-44
2022/01/22 05:25:49;;;;;;;1.48;0.90;;;;;;;18.44;32.44;103123.56;4231835;28;20180;-48
2022/01/22 05:30:12;;;;;;;1.60;0.93;;;;;;;18.48;32.25;103111.00;4231615;28;20084;-46
2022/01/22 05:33:01;;;;;;;1.55;0.95;;;;;;;18.49;32.09;103119.09;4231798;28;20135;-45
2022/01/22 05:37:04;;;;;;;1.25;0.98;;;;;;;18.52;32.19;103104.81;4228745;28;20081;-45
2022/01/22 05:39:10;;;;;;;1.83;0.82;;;;;;;18.52;31.92;103092.88;4225139;28;20380;-50
2022/01/22 05:41:12;;;;;;;2.30;1.00;;;;;;;18.49;32.01;103079.44;4214468;28;20096;-46
2022/01/22 05:43:13;;;;;;;1.25;0.95;;;;;;;18.47;31.90;103076.03;4226100;27;20073;-46
2022/01/22 05:45:15;;;;;;;1.40;0.80;;;;;;;18.53;31.65;103087.13;4248830;27;20076;-48
2022/01/22 05:47:22;;;;;;;0.98;0.80;;;;;;;18.53;31.70;103075.16;4248454;27;20478;-46
2022/01/22 05:49:25;;;;;;;2.13;1.20;;;;;;;18.54;31.92;103076.88;4248242;27;20088;-49
2022/01/22 05:51:30;;;;;;;1.83;0.95;;;;;;;18.55;31.52;103078.56;4248528;27;20043;-46
2022/01/22 05:53:43;;;;;;;3.42;0.93;;;;;;;18.53;31.41;103064.94;4248835;27;20084;-49
2022/01/22 06:00:18;;;;;;;1.63;0.85;;;;;;;18.51;31.59;103063.44;4236165;27;20100;-49
2022/01/22 06:02:19;;;;;;;2.70;0.90;;;;;;;18.52;31.71;103068.78;4248296;27;20039;-47
2022/01/22 06:04:21;;;;;;;3.53;1.10;;;;;;;18.53;31.47;103059.38;4243619;27;20085;-51
2022/01/22 06:06:22;;;;;;;1.92;0.70;;;;;;;18.53;31.23;103047.44;4231722;28;20103;-51
2022/01/22 06:08:29;;;;;;;1.48;0.70;;;;;;;18.52;31.54;103037.44;4231128;28;20039;-47
2022/01/22 06:10:33;;;;;;;2.28;1.00;;;;;;;18.48;31.19;103030.59;4226352;28;20040;-47
2022/01/22 06:12:44;;;;;;;1.20;0.90;;;;;;;18.52;31.39;103034.66;4227182;28;20098;-49
2022/01/22 06:14:45;;;;;;;1.02;0.85;;;;;;;18.53;31.06;103026.13;4213957;28;20442;-51
2022/01/22 06:16:47;;;;;;;2.08;1.00;;;;;;;18.52;31.23;103026.34;4215347;28;20039;-47
2022/01/22 06:18:49;;;;;;;2.42;0.90;;;;;;;18.51;31.29;103032.97;4214415;28;20080;-50
2022/01/22 06:20:51;;;;;;;1.98;1.02;;;;;;;18.48;31.10;103031.44;4248628;27;20027;-46
2022/01/22 06:22:55;;;;;;;1.30;0.88;;;;;;;18.46;31.29;103029.94;4223948;27;20101;-49
2022/01/22 06:24:56;;;;;;;1.93;1.10;;;;;;;18.48;31.64;103017.59;4221916;28;20036;-46
2022/01/22 06:26:58;;;;;;;1.52;1.00;;;;;;;18.48;31.11;103019.50;4221968;28;20446;-48
2022/01/22 06:28:59;;;;;;;1.85;1.10;;;;;;;18.45;31.33;103009.69;4214261;28;20113;-47
2022/01/22 06:31:03;;;;;;;1.95;1.08;;;;;;;18.46;31.10;103013.31;4231567;28;20047;-49
2022/01/22 06:33:05;;;;;;;1.63;1.10;;;;;;;18.46;31.19;103013.31;4247806;27;20035;-50
2022/01/22 06:35:09;;;;;;;1.30;0.95;;;;;;;18.44;31.29;102998.81;4236176;27;20028;-51
2022/01/22 06:37:10;;;;;;;1.20;0.73;;;;;;;18.41;31.62;102997.31;4238097;27;20034;-48
2022/01/22 06:43:33;;;;;;;0.93;0.82;;;;;;;18.26;31.47;102980.91;4231724;28;20101;-48
2022/01/22 06:45:34;;;;;;;1.55;0.80;;;;;;;18.37;31.39;103012.72;4231162;28;20045;-48
2022/01/22 06:47:36;;;;;;;1.73;0.90;;;;;;;18.36;31.55;103019.28;4229814;28;20127;-46
2022/01/22 06:49:37;;;;;;;1.00;0.70;;;;;;;18.33;31.63;103016.97;4212043;28;20112;-55
2022/01/22 06:51:39;;;;;;;1.60;1.00;;;;;;;18.26;31.47;103016.94;4229226;28;20024;-49
2022/01/22 06:53:41;;;;;;;1.73;0.80;;;;;;;18.31;31.56;103016.31;4230491;28;20825;-47
2022/01/22 06:55:52;;;;;;;1.77;0.90;;;;;;;18.27;31.30;103015.88;4227086;28;20040;-49
2022/01/22 06:57:54;;;;;;;1.85;1.00;;;;;;;18.31;31.50;103007.16;4222085;28;20444;-48
2022/01/22 06:59:55;;;;;;;1.42;0.90;;;;;;;18.30;31.51;103009.06;4216985;28;20109;-50
2022/01/22 07:01:57;;;;;;;1.67;0.90;;;;;;;18.27;31.61;102999.25;4238437;27;20031;-49
2022/01/22 07:03:58;;;;;;;1.55;0.85;;;;;;;18.27;31.31;102998.41;4247461;27;20035;-49
2022/01/22 07:05:59;;;;;;;2.05;1.15;;;;;;;18.27;31.53;102992.84;4239099;28;20040;-48
2022/01/22 07:08:01;;;;;;;1.88;0.70;;;;;;;18.24;31.62;103001.63;4229997;28;20047;-44
2022/01/22 07:10:03;;;;;;;1.20;0.95;;;;;;;18.25;31.14;103012.47;4230764;28;20023;-50
2022/01/22 07:12:06;;;;;;;1.98;1.00;;;;;;;18.22;31.65;102999.03;4230947;28;20466;-46
2022/01/22 07:14:07;;;;;;;2.15;1.05;;;;;;;18.24;31.41;102993.31;4231226;28;20413;-46
2022/01/22 07:16:08;;;;;;;1.35;0.90;;;;;;;18.23;31.54;102997.13;4231017;28;20024;-48
2022/01/22 07:18:13;;;;;;;1.02;0.80;;;;;;;18.22;31.53;103003.72;4238951;28;20039;-47
2022/01/22 07:20:17;;;;;;;1.10;0.90;;;;;;;18.19;31.55;103002.25;4247075;28;20459;-47
2022/01/22 07:22:33;;;;;;;2.25;1.02;;;;;;;18.19;31.29;103002.25;4247288;28;20039;-49
2022/01/22 07:24:39;;;;;;;;;;;;;;;18.18;31.22;103022.69;4247365;28;20035;-44
2022/01/22 07:26:40;;;;;;;1.55;0.90;;;;;;;18.23;31.10;103013.75;4217229;28;19920;-46
2022/01/22 07:28:43;;;;;;;1.48;0.80;;;;;;;18.23;31.43;103014.59;4216307;28;20039;-46
2022/01/22 07:30:46;;;;;;;2.80;1.00;;;;;;;18.20;31.42;103020.59;4227764;28;20092;-48
2022/01/22 07:32:48;;;;;;;1.88;1.02;;;;;;;18.19;31.55;103007.78;4225321;27;20047;-44
2022/01/22 07:34:49;;;;;;;2.10;1.20;;;;;;;18.17;31.19;103001.59;4246880;27;20036;-46
2022/01/22 07:36:50;;;;;;;1.88;0.95;;;;;;;18.15;31.40;103003.75;4233346;28;20089;-47
2022/01/22 07:38:52;;;;;;;1.23;1.00;;;;;;;18.14;31.18;103002.00;4233240;28;20047;-50
2022/01/22 07:40:53;;;;;;;2.28;0.90;;;;;;;18.13;31.45;103000.31;4233113;28;20514;-48
2022/01/22 07:42:55;;;;;;;1.63;0.90;;;;;;;18.06;31.30;102969.00;4232685;28;20432;-46
2022/01/22 07:44:56;;;;;;;1.33;0.93;;;;;;;18.12;31.16;102987.53;4232242;28;20032;-47
2022/01/22 07:46:58;;;;;;;1.00;0.90;;;;;;;18.10;31.31;102981.38;4227949;28;20044;-48
2022/01/22 07:48:59;;;;;;;1.15;0.90;;;;;;;18.08;31.50;102988.16;4231925;28;20040;-45
2022/01/22 07:51:00;;;;;;;1.58;1.05;;;;;;;18.06;31.24;102996.69;4232853;28;20039;-49
2022/01/22 07:53:02;;;;;;;2.13;0.90;;;;;;;18.06;31.61;102996.69;4232961;28;20380;-46
2022/01/22 07:55:05;;;;;;;1.35;0.88;;;;;;;18.07;31.50;102980.94;4233456;28;20088;-48
2022/01/22 07:57:06;;;;;;;1.58;1.25;;;;;;;18.04;31.16;102976.66;4232536;28;20441;-47
2022/01/22 07:59:08;;;;;;;1.67;0.90;;;;;;;18.04;31.10;102966.41;4232089;28;20043;-48
2022/01/22 08:01:09;;;;;;;1.40;0.93;;;;;;;18.02;31.39;102953.88;4233166;28;20043;-50
2022/01/22 08:03:10;;;;;;;1.77;1.02;;;;;;;17.99;31.16;102943.19;4233487;28;20091;-47
2022/01/22 08:05:12;;;;;;;1.63;1.08;;;;;;;17.99;31.10;102952.34;4232467;28;20393;-47
2022/01/22 08:07:13;;;;;;;3.97;1.08;;;;;;;17.99;31.52;102954.28;4233414;28;20081;-45
2022/01/22 08:09:15;;;;;;;1.45;0.95;;;;;;;17.96;31.73;102946.38;4231438;28;20536;-48
2022/01/22 08:11:16;;;;;;;1.00;0.80;;;;;;;17.99;31.51;102943.19;4231695;28;20035;-44
2022/01/22 08:13:19;;;;;;;1.73;0.98;;;;;;;17.98;31.53;102938.72;4233215;28;20101;-47
2022/01/22 08:15:21;;;;;;;1.90;0.95;;;;;;;17.98;31.25;102945.13;4220608;28;20035;-47
2022/01/22 08:17:23;;;;;;;1.30;0.90;;;;;;;17.99;31.25;102935.72;4216062;28;20088;-49
2022/01/22 08:19:24;;;;;;;1.48;0.98;;;;;;;18.02;31.23;102940.00;4216023;28;20036;-48
2022/01/22 08:21:25;;;;;;;1.85;1.10;;;;;;;18.04;31.24;102937.88;4216052;28;20377;-45
2022/01/22 08:23:27;;;;;;;1.48;1.10;;;;;;;18.07;31.29;102940.22;4215986;28;20093;-44
2022/01/22 08:25:31;;;;;;;1.27;0.93;;;;;;;18.09;31.51;102940.84;4229948;27;20044;-46
2022/01/22 08:27:40;;;;;;;1.65;0.98;;;;;;;18.12;31.42;102940.44;4216516;28;20445;-46
2022/01/22 08:29:41;;;;;;;1.60;0.98;;;;;;;18.15;31.12;102940.00;4222651;27;20097;-44
2022/01/22 08:31:51;;;;;;;1.13;0.90;;;;;;;18.16;31.17;102941.72;4249945;27;20118;-44
2022/01/22 08:36:13;;;;;;;1.17;0.90;;;;;;;18.21;31.48;102922.53;4233623;28;20425;-45
2022/01/22 08:38:15;;;;;;;1.30;0.95;;;;;;;18.24;31.06;102927.63;4233078;28;20084;-45
2022/01/22 08:40:16;;;;;;;1.10;1.00;;;;;;;18.25;30.88;102918.25;4231810;28;20429;-44
2022/01/22 08:42:19;;;;;;;1.42;1.05;;;;;;;18.30;30.98;102909.28;4232609;28;20035;-45
2022/01/22 08:44:20;;;;;;;1.42;0.90;;;;;;;18.32;31.12;102907.16;4232905;28;20027;-45
2022/01/22 08:46:25;;;;;;;2.08;1.25;;;;;;;18.34;30.87;102909.72;4243198;27;20524;-46
2022/01/22 08:48:26;;;;;;;2.83;1.30;;;;;;;18.36;30.72;102910.34;4249160;27;20039;-49
2022/01/22 08:50:28;;;;;;;1.27;1.10;;;;;;;18.33;30.88;102902.47;4249085;27;20099;-49
2022/01/22 08:52:33;;;;;;;1.40;1.10;;;;;;;18.36;30.63;102910.34;4249784;27;20031;-46
2022/01/22 08:54:34;;;;;;;1.35;0.70;;;;;;;18.35;30.73;102897.56;4249724;27;20092;-47
2022/01/22 08:56:37;;;;;;;1.20;1.00;;;;;;;18.39;30.61;102901.59;4249175;27;20035;-47
2022/01/22 08:58:39;;;;;;;1.77;0.90;;;;;;;18.39;30.67;102891.38;4249146;27;20188;-45
2022/01/22 09:00:40;;;;;;;1.42;1.00;;;;;;;18.39;30.65;102902.44;4248817;27;20470;-46
2022/01/22 09:02:44;;;;;;;2.03;1.23;;;;;;;18.40;30.57;102900.53;4248951;27;20431;-43
2022/01/22 09:04:46;;;;;;;2.53;1.30;;;;;;;18.40;30.44;102908.84;4249254;27;20547;-47
2022/01/22 09:06:47;;;;;;;1.40;1.02;;;;;;;18.40;30.43;102900.53;4249560;27;20031;-45
2022/01/22 09:08:55;;;;;;;1.77;1.10;;;;;;;18.41;30.46;102899.44;4248880;27;20051;-48
2022/01/22 09:10:57;;;;;;;1.40;0.77;;;;;;;18.40;30.35;102897.75;4249258;27;20088;-44
2022/01/22 09:12:58;;;;;;;1.73;1.20;;;;;;;18.43;30.24;102897.34;4249451;27;20087;-47
2022/01/22 09:15:00;;;;;;;3.03;1.23;;;;;;;18.42;30.29;102896.50;4249068;27;20035;-47
2022/01/22 09:17:02;;;;;;;1.30;1.05;;;;;;;18.41;30.05;102894.75;4248992;27;20617;-45
2022/01/22 09:19:07;;;;;;;1.48;0.90;;;;;;;18.41;30.07;102885.59;4248643;27;20038;-45
2022/01/22 09:21:10;;;;;;;1.35;1.00;;;;;;;18.39;30.25;102880.28;4248607;27;20072;-45
2022/01/22 09:23:12;;;;;;;1.13;0.90;;;;;;;18.39;30.41;102873.88;4235657;27;20085;-46
2022/01/22 09:25:15;;;;;;;1.60;1.08;;;;;;;18.39;30.44;102880.28;4231812;28;20100;-47
2022/01/22 09:27:17;;;;;;;1.88;1.02;;;;;;;18.40;30.20;102886.66;4231348;28;20321;-46
2022/01/22 09:29:18;;;;;;;1.60;1.00;;;;;;;18.40;29.99;102887.53;4227092;28;20457;-46
2022/01/22 09:31:19;;;;;;;1.20;0.90;;;;;;;18.38;30.46;102883.28;4231971;28;20036;-46
2022/01/22 09:33:21;;;;;;;1.70;0.80;;;;;;;18.38;30.12;102884.13;4231448;28;20088;-46
2022/01/22 09:35:23;;;;;;;2.38;1.42;;;;;;;18.38;30.38;102883.28;4230068;28;20444;-46
2022/01/22 09:37:25;;;;;;;1.45;1.10;;;;;;;18.36;30.33;102877.09;4226242;27;20096;-46
2022/01/22 09:39:26;;;;;;;1.30;0.90;;;;;;;18.34;30.32;102885.63;4239575;27;20048;-47
2022/01/22 09:41:28;;;;;;;1.95;0.93;;;;;;;18.35;30.42;102889.25;4227178;28;20397;-47
2022/01/22 09:43:30;;;;;;;1.83;1.00;;;;;;;18.35;30.12;102900.31;4227944;28;20124;-50
2022/01/22 09:45:31;;;;;;;1.00;0.82;;;;;;;18.32;30.39;102896.06;4215119;28;20109;-45
2022/01/22 09:47:34;;;;;;;2.08;1.00;;;;;;;18.34;30.23;102904.19;4214619;28;20040;-50
2022/01/22 09:49:35;;;;;;;1.48;1.00;;;;;;;18.32;30.00;102907.16;4214681;28;20059;-47
2022/01/22 09:51:37;;;;;;;1.50;1.02;;;;;;;18.28;30.41;102901.19;4218315;28;20112;-48
2022/01/22 09:53:45;;;;;;;1.63;0.98;;;;;;;18.28;30.48;102901.19;4239567;27;20035;-47
2022/01/22 09:55:47;;;;;;;1.73;1.10;;;;;;;18.26;30.53;102897.78;4247961;27;20044;-48
2022/01/22 09:57:49;;;;;;;1.52;1.33;;;;;;;18.23;30.59;102909.28;4238316;27;20072;-47
2022/01/22 09:59:50;;;;;;;1.42;1.15;;;;;;;18.23;30.50;102909.28;4231030;28;20039;-48
2022/01/22 10:01:51;;;;;;;1.35;1.05;;;;;;;18.21;30.28;102905.03;4230946;28;20040;-48
2022/01/22 10:03:58;;;;;;;1.05;0.90;;;;;;;18.21;30.50;102899.50;4231238;28;20096;-48
2022/01/22 10:06:13;;;;;;;1.60;1.00;;;;;;;18.20;30.56;102904.19;4230988;28;20096;-44
2022/01/22 10:08:27;;;;;;;1.98;1.15;;;;;;;18.20;30.38;102906.13;4231155;28;20040;-44
2022/01/22 10:10:40;;;;;;;2.13;1.00;;;;;;;18.17;30.32;102895.44;4244276;27;20039;-48
2022/01/22 10:12:45;;;;;;;1.42;1.02;;;;;;;18.20;30.38;102898.66;4248024;27;20039;-45
2022/01/22 10:15:09;;;;;;;1.50;1.10;;;;;;;18.16;30.57;102882.66;4247912;27;20043;-45
2022/01/22 10:17:11;;;;;;;1.60;1.15;;;;;;;18.17;30.62;102882.44;4247991;27;20035;-48
2022/01/22 10:19:17;;;;;;;1.58;1.08;;;;;;;18.11;30.42;102883.31;4247398;27;20100;-45
2022/01/22 10:21:18;;;;;;;1.73;1.10;;;;;;;18.11;30.28;102888.84;4247864;27;20104;-45
2022/01/22 10:23:24;;;;;;;2.00;1.20;;;;;;;18.12;30.40;102895.25;4247795;27;20035;-45
2022/01/22 10:25:32;;;;;;;1.27;1.02;;;;;;;18.09;30.51;102896.50;4247866;27;20035;-52
2022/01/22 10:27:37;;;;;;;1.20;0.80;;;;;;;18.10;30.60;102903.78;4247793;27;20436;-47
2022/01/22 10:29:47;;;;;;;1.03;0.77;;;;;;;18.09;30.54;102913.13;4247454;27;20084;-45
2022/01/22 10:31:49;;;;;;;0.88;0.80;;;;;;;18.09;30.68;102910.38;4247893;27;20043;-44
2022/01/22 10:34:11;;;;;;;1.20;0.93;;;;;;;17.98;30.66;102905.50;4229810;28;20472;-48
2022/01/22 10:36:21;;;;;;;2.10;1.30;;;;;;;18.07;30.38;102918.06;4247565;27;20100;-46
2022/01/22 10:38:23;;;;;;;1.05;0.90;;;;;;;18.02;30.67;102912.31;4242041;27;20132;-47
2022/01/22 10:40:27;;;;;;;1.50;1.00;;;;;;;18.05;30.50;102914.63;4246711;27;20039;-48
2022/01/22 10:42:29;;;;;;;2.27;1.57;;;;;;;18.05;30.62;102906.31;4247648;27;20055;-48
2022/01/22 10:44:46;;;;;;;2.22;1.08;;;;;;;18.02;30.27;102910.38;4247202;27;20039;-46
2022/01/22 10:47:03;;;;;;;1.20;1.10;;;;;;;18.01;30.45;102905.06;4235439;27;20043;-45
2022/01/22 10:49:21;;;;;;;1.60;1.08;;;;;;;18.00;30.39;102903.34;4229860;28;20055;-44
2022/01/22 10:51:28;;;;;;;1.48;1.23;;;;;;;18.00;30.37;102909.72;4230552;28;20040;-44
2022/01/22 10:53:41;;;;;;;2.30;1.30;;;;;;;17.99;30.76;102912.72;4229085;28;20040;-46